Time;durP1;ratioP1;P1;durP2;ratioP2;P2;SDS_P1;SDS_P2;PMS_P1;PMS_P2;Temp;Humidity;BMP_temperature;BMP_pressure;BME280_temperature;BME280_humidity;BME280_pressure;Samples;Min_cycle;Max_cycle;Signal;HPM_P1;HPM_P2
2022/10/04 00:00:23;;;;;;;14.07;5.60;;;14.20;99.90;;;;;;5114077;28;20119;-75
2022/10/04 00:02:50;;;;;;;20.00;6.32;;;13.40;99.90;;;;;;5095274;28;20132;-75
2022/10/04 00:05:21;;;;;;;14.27;6.03;;;13.30;99.90;;;;;;5095977;28;20036;-76
2022/10/04 00:07:52;;;;;;;13.85;6.07;;;13.30;99.90;;;;;;5113763;28;20047;-75
2022/10/04 00:10:30;;;;;;;14.50;6.00;;;13.80;99.90;;;;;;5113731;28;20396;-75
2022/10/04 00:13:03;;;;;;;15.57;5.75;;;13.30;99.90;;;;;;5095435;28;20345;-75
2022/10/04 00:15:38;;;;;;;13.88;5.80;;;13.30;99.90;;;;;;5111436;28;20039;-75
2022/10/04 00:18:09;;;;;;;21.15;6.28;;;13.20;99.90;;;;;;5093489;28;20204;-75
2022/10/04 00:20:52;;;;;;;13.52;5.55;;;13.20;99.90;;;;;;5074996;28;20134;-76
2022/10/04 00:23:23;;;;;;;12.52;6.25;;;13.20;99.90;;;;;;5075212;28;20421;-76
2022/10/04 00:26:12;;;;;;;17.45;6.03;;;13.20;99.90;;;;;;5074940;28;20052;-76
2022/10/04 00:28:38;;;;;;;13.65;6.05;;;13.80;99.90;;;;;;5058805;28;20048;-76
2022/10/04 00:31:18;;;;;;;17.05;6.10;;;13.30;99.90;;;;;;5113050;28;20082;-76
2022/10/04 00:34:03;;;;;;;18.85;6.10;;;13.10;99.90;;;;;;5098456;28;20114;-76
2022/10/04 00:36:39;;;;;;;12.73;6.18;;;13.10;99.90;;;;;;5092875;28;20075;-76
2022/10/04 00:39:07;;;;;;;14.82;6.50;;;13.10;99.90;;;;;;5074848;28;20048;-76
2022/10/04 00:41:48;;;;;;;13.57;5.80;;;13.10;99.90;;;;;;5092992;28;20052;-75
2022/10/04 00:44:31;;;;;;;17.75;6.45;;;13.10;99.90;;;;;;5074834;28;20143;-76
2022/10/04 00:47:02;;;;;;;13.35;6.15;;;14.00;99.90;;;;;;5092684;28;20040;-76
2022/10/04 00:49:41;;;;;;;15.10;6.70;;;13.20;99.90;;;;;;5101059;28;20122;-76
2022/10/04 00:52:15;;;;;;;13.88;5.88;;;13.10;99.90;;;;;;5112132;28;20043;-76
2022/10/04 00:54:49;;;;;;;17.20;6.30;;;13.70;99.90;;;;;;5077130;28;20040;-76
2022/10/04 00:57:26;;;;;;;12.80;6.07;;;13.20;99.90;;;;;;5092336;28;20035;-76
2022/10/04 01:00:03;;;;;;;19.08;6.40;;;13.40;99.90;;;;;;5091688;28;20076;-76
2022/10/04 01:02:44;;;;;;;13.80;6.32;;;13.20;99.90;;;;;;5093419;28;20046;-76
2022/10/04 01:05:17;;;;;;;19.42;6.25;;;13.20;99.90;;;;;;5088219;28;20093;-76
2022/10/04 01:07:46;;;;;;;14.48;5.93;;;13.10;99.90;;;;;;5082223;28;20036;-76
2022/10/04 01:10:29;;;;;;;17.83;6.25;;;13.30;99.90;;;;;;5092821;28;20040;-76
2022/10/04 01:13:07;;;;;;;14.13;6.38;;;13.10;99.90;;;;;;5074267;28;20050;-76
2022/10/04 01:16:00;;;;;;;16.60;6.68;;;13.10;99.90;;;;;;5096229;28;20040;-75
2022/10/04 01:18:29;;;;;;;16.98;6.88;;;13.10;99.90;;;;;;5090124;28;20040;-76
2022/10/04 01:21:17;;;;;;;14.70;7.20;;;13.10;99.90;;;;;;5116550;28;20512;-76
2022/10/04 01:23:46;;;;;;;20.67;7.25;;;13.00;99.90;;;;;;5117018;28;20075;-76
2022/10/04 01:26:31;;;;;;;16.17;6.75;;;13.00;99.90;;;;;;5116911;28;20050;-76
2022/10/04 01:29:09;;;;;;;17.55;7.35;;;12.90;99.90;;;;;;5081227;28;20040;-76
2022/10/04 01:31:39;;;;;;;18.85;7.88;;;13.00;99.90;;;;;;5114313;28;20055;-76
2022/10/04 01:34:05;;;;;;;14.85;6.82;;;13.00;99.90;;;;;;5098666;28;20079;-75
2022/10/04 01:36:32;;;;;;;17.23;8.07;;;13.20;99.90;;;;;;5116596;28;20392;-76
2022/10/04 01:38:59;;;;;;;17.08;7.72;;;13.00;99.90;;;;;;5103675;28;20032;-76
2022/10/04 01:41:57;;;;;;;15.90;7.75;;;13.10;99.90;;;;;;5096111;28;20039;-76
2022/10/04 01:44:58;;;;;;;18.45;7.55;;;13.10;99.90;;;;;;5096466;28;20044;-76
2022/10/04 01:47:32;;;;;;;16.35;8.15;;;13.10;99.90;;;;;;5096238;28;20098;-76
2022/10/04 01:50:04;;;;;;;17.92;8.07;;;13.10;99.90;;;;;;5079183;28;20134;-76
2022/10/04 01:52:45;;;;;;;16.42;8.32;;;13.00;99.90;;;;;;5096988;28;20421;-76
2022/10/04 01:55:16;;;;;;;14.38;8.25;;;13.00;99.90;;;;;;5095846;28;20044;-76
2022/10/04 01:57:53;;;;;;;19.65;8.93;;;13.00;99.90;;;;;;5104514;28;20488;-76
2022/10/04 02:00:20;;;;;;;15.60;8.75;;;13.20;99.90;;;;;;5103159;28;20039;-76
2022/10/04 02:03:02;;;;;;;19.17;8.50;;;12.90;99.90;;;;;;5078490;28;20559;-76
2022/10/04 02:05:41;;;;;;;18.63;8.40;;;13.90;99.90;;;;;;5060805;28;20051;-76
2022/10/04 02:08:15;;;;;;;16.95;8.27;;;13.70;99.90;;;;;;5095957;28;20057;-76
2022/10/04 02:10:41;;;;;;;19.55;8.38;;;12.90;99.90;;;;;;5095821;28;20044;-75
2022/10/04 02:13:10;;;;;;;14.55;8.50;;;12.90;99.90;;;;;;5075493;28;20047;-76
2022/10/04 02:15:38;;;;;;;19.02;8.70;;;12.80;99.90;;;;;;5116126;28;20059;-76
2022/10/04 02:18:10;;;;;;;19.67;8.65;;;12.80;99.90;;;;;;5099897;28;20123;-76
2022/10/04 02:20:38;;;;;;;18.00;8.93;;;12.80;99.90;;;;;;5095642;28;20397;-76
2022/10/04 02:23:05;;;;;;;17.58;8.30;;;12.80;99.90;;;;;;5096864;28;20544;-77
2022/10/04 02:25:31;;;;;;;17.52;8.73;;;13.70;99.90;;;;;;5085510;28;20043;-76
2022/10/04 02:27:56;;;;;;;18.02;8.93;;;12.70;99.90;;;;;;5082684;28;20384;-77
2022/10/04 02:30:23;;;;;;;20.60;9.02;;;13.50;99.90;;;;;;5077530;28;20036;-76
2022/10/04 02:32:59;;;;;;;17.20;8.52;;;12.70;99.90;;;;;;5094450;28;20055;-77
2022/10/04 02:35:34;;;;;;;20.00;8.57;;;13.30;99.90;;;;;;5099381;28;20058;-76
2022/10/04 02:38:06;;;;;;;16.20;9.05;;;12.60;99.90;;;;;;5092976;28;20050;-76
2022/10/04 02:40:54;;;;;;;20.95;9.65;;;13.30;99.90;;;;;;5094903;28;20067;-76
2022/10/04 02:43:36;;;;;;;17.63;8.65;;;12.50;99.90;;;;;;5093585;28;20047;-76
2022/10/04 02:46:16;;;;;;;18.88;8.43;;;12.50;99.90;;;;;;5077267;28;20412;-77
2022/10/04 02:48:49;;;;;;;16.20;8.48;;;12.50;99.90;;;;;;5095060;28;20188;-76
2022/10/04 02:51:33;;;;;;;15.70;9.15;;;12.50;99.90;;;;;;5102935;28;20036;-77
2022/10/04 02:54:34;;;;;;;19.15;8.50;;;12.50;99.90;;;;;;5095574;28;20091;-76
2022/10/04 02:57:00;;;;;;;18.13;8.60;;;12.50;99.90;;;;;;5110799;28;20116;-76
2022/10/04 02:59:26;;;;;;;16.75;8.50;;;13.20;99.90;;;;;;5115396;28;20172;-77
2022/10/04 03:02:00;;;;;;;19.48;8.30;;;12.50;99.90;;;;;;5100991;28;20044;-76
2022/10/04 03:04:38;;;;;;;19.70;8.80;;;12.50;99.90;;;;;;5077120;28;20370;-76
2022/10/04 03:07:07;;;;;;;17.98;8.23;;;12.40;99.90;;;;;;5114756;28;20051;-76
2022/10/04 03:09:35;;;;;;;20.20;8.30;;;12.50;99.90;;;;;;5096730;28;20038;-77
2022/10/04 03:12:03;;;;;;;17.83;7.90;;;12.90;99.90;;;;;;5114006;28;20079;-77
2022/10/04 03:14:30;;;;;;;17.17;8.70;;;12.50;99.90;;;;;;5097056;28;20039;-76
2022/10/04 03:16:59;;;;;;;20.95;8.35;;;13.10;99.90;;;;;;5101985;28;20430;-76
2022/10/04 03:19:27;;;;;;;19.42;8.63;;;13.10;99.90;;;;;;5079474;28;20051;-76
2022/10/04 03:22:01;;;;;;;16.75;7.97;;;12.50;99.90;;;;;;5112521;28;20031;-77
2022/10/04 03:24:30;;;;;;;18.33;8.35;;;12.90;99.90;;;;;;5096539;28;20090;-77
2022/10/04 03:26:58;;;;;;;18.92;7.95;;;13.30;99.90;;;;;;5114459;28;20040;-77
2022/10/04 03:29:29;;;;;;;19.10;8.18;;;12.70;99.90;;;;;;5096304;28;20118;-76
2022/10/04 03:31:58;;;;;;;17.15;7.50;;;12.50;99.90;;;;;;5114213;28;20052;-76
2022/10/04 03:34:30;;;;;;;19.02;8.32;;;12.70;99.90;;;;;;5114607;28;20062;-76
2022/10/04 03:36:57;;;;;;;18.67;8.98;;;12.40;99.90;;;;;;5114168;28;20052;-76
2022/10/04 03:39:32;;;;;;;16.98;8.27;;;13.20;99.90;;;;;;5114394;28;20049;-76
2022/10/04 03:42:11;;;;;;;17.42;8.30;;;12.40;99.90;;;;;;5095914;28;20039;-76
2022/10/04 03:44:37;;;;;;;17.92;8.80;;;12.40;99.90;;;;;;5093988;28;20632;-76
2022/10/04 03:47:10;;;;;;;22.05;9.02;;;12.30;99.90;;;;;;5094600;28;20130;-76
2022/10/04 03:49:36;;;;;;;18.50;9.00;;;12.30;99.90;;;;;;5113682;28;20046;-77
2022/10/04 03:52:03;;;;;;;14.98;8.07;;;12.90;99.90;;;;;;5088149;28;20395;-76
2022/10/04 03:54:30;;;;;;;19.63;8.15;;;12.40;99.90;;;;;;5075595;28;20039;-76
2022/10/04 03:56:57;;;;;;;16.67;8.07;;;12.40;99.90;;;;;;5109015;28;20035;-76
2022/10/04 03:59:25;;;;;;;18.92;8.75;;;12.40;99.90;;;;;;5098326;28;20083;-76
2022/10/04 04:02:14;;;;;;;20.42;8.07;;;12.40;99.90;;;;;;5075213;28;20080;-77
2022/10/04 04:05:00;;;;;;;16.85;8.00;;;12.30;99.90;;;;;;5093874;28;20076;-76
2022/10/04 04:07:45;;;;;;;15.50;7.70;;;12.30;99.90;;;;;;5095076;28;20047;-76
2022/10/04 04:10:22;;;;;;;17.70;7.97;;;12.50;99.90;;;;;;5074979;28;20051;-76
2022/10/04 04:12:50;;;;;;;19.17;9.10;;;12.30;99.90;;;;;;5092986;28;20036;-76
2022/10/04 04:15:16;;;;;;;18.33;8.60;;;12.30;99.90;;;;;;5095741;28;20059;-76
2022/10/04 04:17:49;;;;;;;17.27;9.02;;;12.30;99.90;;;;;;5107775;28;20122;-76
2022/10/04 04:20:21;;;;;;;19.38;9.10;;;12.30;99.90;;;;;;5093467;28;20048;-76
2022/10/04 04:23:04;;;;;;;20.27;8.70;;;12.30;99.90;;;;;;5101352;28;20486;-76
2022/10/04 04:25:36;;;;;;;19.35;8.57;;;12.20;99.90;;;;;;5074937;28;20071;-76
2022/10/04 04:28:24;;;;;;;20.95;9.50;;;12.20;99.90;;;;;;5101411;28;20507;-76
2022/10/04 04:30:56;;;;;;;16.20;8.60;;;12.20;99.90;;;;;;5095010;28;20059;-76
2022/10/04 04:33:56;;;;;;;16.77;9.02;;;13.30;99.90;;;;;;5113256;28;20056;-77
2022/10/04 04:36:22;;;;;;;21.05;9.73;;;12.20;99.90;;;;;;5106196;28;20165;-76
2022/10/04 04:41:35;;;;;;;19.30;9.10;;;12.20;99.90;;;;;;5105073;28;20055;-76
2022/10/04 04:44:02;;;;;;;23.88;8.93;;;12.10;99.90;;;;;;5081725;28;20051;-76
2022/10/04 04:46:29;;;;;;;22.73;10.13;;;12.10;99.90;;;;;;5066651;28;20046;-76
2022/10/04 04:49:01;;;;;;;21.52;9.77;;;12.10;99.90;;;;;;5077197;28;20052;-76
2022/10/04 04:51:28;;;;;;;23.23;9.63;;;12.10;99.90;;;;;;5075442;28;20051;-76
2022/10/04 04:53:55;;;;;;;21.30;9.57;;;13.10;99.90;;;;;;5073629;28;20126;-76
2022/10/04 04:56:27;;;;;;;19.95;9.90;;;12.10;99.90;;;;;;5102356;28;20043;-76
2022/10/04 04:58:55;;;;;;;24.27;9.57;;;13.00;99.90;;;;;;5090512;28;20637;-76
2022/10/04 05:01:28;;;;;;;23.67;9.70;;;12.10;99.90;;;;;;5092843;28;20496;-76
2022/10/04 05:04:15;;;;;;;16.48;9.98;;;12.10;99.90;;;;;;5094297;28;20043;-76
2022/10/04 05:06:59;;;;;;;18.02;9.65;;;12.10;99.90;;;;;;5083272;28;20097;-76
2022/10/04 05:09:30;;;;;;;19.92;10.40;;;12.10;99.90;;;;;;5093483;28;20051;-76
2022/10/04 05:12:17;;;;;;;19.70;10.07;;;12.10;99.90;;;;;;5094310;28;20055;-76
2022/10/04 05:14:51;;;;;;;19.98;9.90;;;12.00;99.90;;;;;;5094482;28;20043;-76
2022/10/04 05:17:23;;;;;;;16.93;9.73;;;12.10;99.90;;;;;;5112900;28;20365;-76
2022/10/04 05:19:51;;;;;;;21.75;10.48;;;12.00;99.90;;;;;;5095016;28;20058;-76
2022/10/04 05:22:21;;;;;;;22.27;10.50;;;12.10;99.90;;;;;;5094585;28;20420;-76
2022/10/04 05:24:51;;;;;;;19.30;10.07;;;13.00;99.90;;;;;;5094937;28;20062;-76
2022/10/04 05:27:31;;;;;;;18.50;11.20;;;12.50;99.90;;;;;;5112416;28;20044;-76
2022/10/04 05:30:07;;;;;;;19.80;10.90;;;12.80;99.90;;;;;;5094624;28;20479;-76
2022/10/04 05:32:33;;;;;;;;;;;11.90;99.90;;;;;;5112796;28;20452;-76
2022/10/04 05:34:59;;;;;;;17.98;10.85;;;12.00;99.90;;;;;;5106775;28;19967;-76
2022/10/04 05:37:47;;;;;;;24.33;12.43;;;13.10;99.90;;;;;;5092130;28;20153;-76
2022/10/04 05:40:22;;;;;;;18.05;10.85;;;11.80;99.90;;;;;;5092710;28;20044;-76
2022/10/04 05:42:50;;;;;;;22.17;11.87;;;11.70;99.90;;;;;;5092021;28;20059;-76
2022/10/04 05:45:25;;;;;;;21.98;12.07;;;11.70;99.90;;;;;;5079302;28;20055;-76
2022/10/04 05:47:56;;;;;;;19.35;12.25;;;11.70;99.90;;;;;;5086127;28;20080;-76
2022/10/04 05:50:35;;;;;;;19.00;12.30;;;11.90;99.90;;;;;;5112778;28;20039;-76
2022/10/04 05:53:28;;;;;;;21.70;12.60;;;11.70;99.90;;;;;;5072762;28;20099;-76
2022/10/04 05:56:12;;;;;;;22.05;11.90;;;11.70;99.90;;;;;;5103910;28;20093;-76
2022/10/04 05:58:53;;;;;;;17.38;11.60;;;11.60;99.90;;;;;;5092731;28;20040;-76
2022/10/04 06:01:29;;;;;;;23.10;12.07;;;11.70;99.90;;;;;;5077354;28;20043;-76
2022/10/04 06:04:16;;;;;;;26.23;12.43;;;11.60;99.90;;;;;;5095947;28;20337;-76
2022/10/04 06:07:03;;;;;;;17.90;11.25;;;11.60;99.90;;;;;;5095514;28;20059;-76
2022/10/04 06:09:34;;;;;;;22.80;12.40;;;11.70;99.90;;;;;;5105548;28;20044;-76
2022/10/04 06:12:31;;;;;;;21.83;13.40;;;11.60;99.90;;;;;;5070137;28;20040;-75
2022/10/04 06:15:15;;;;;;;;;;;11.60;99.90;;;;;;5116778;28;20059;-75
2022/10/04 06:18:09;;;;;;;23.42;12.43;;;11.60;99.90;;;;;;5115480;28;19977;-76
2022/10/04 06:20:41;;;;;;;21.55;13.02;;;11.60;99.90;;;;;;5097612;28;20043;-76
2022/10/04 06:23:14;;;;;;;22.38;12.95;;;11.60;99.90;;;;;;5087827;28;20431;-76
2022/10/04 06:25:54;;;;;;;24.58;12.52;;;11.60;99.90;;;;;;5077458;28;20335;-76
2022/10/04 06:28:30;;;;;;;21.00;12.20;;;11.60;99.90;;;;;;5095106;28;20044;-77
2022/10/04 06:31:24;;;;;;;19.13;11.93;;;11.70;99.90;;;;;;5060339;28;20181;-76
2022/10/04 06:34:20;;;;;;;24.08;12.38;;;11.70;99.90;;;;;;5013164;28;20405;-76
2022/10/04 06:36:52;;;;;;;18.85;11.88;;;11.70;99.90;;;;;;5075063;28;20049;-76
2022/10/04 06:39:35;;;;;;;19.70;11.65;;;11.70;99.90;;;;;;5057767;28;20116;-76
2022/10/04 06:42:25;;;;;;;21.08;11.80;;;11.90;99.90;;;;;;5075374;28;20142;-77
2022/10/04 06:45:20;;;;;;;21.58;11.45;;;12.50;99.90;;;;;;5057495;28;20048;-76
2022/10/04 06:48:02;;;;;;;19.50;11.27;;;12.70;99.90;;;;;;5041180;28;20033;-77
2022/10/04 06:50:50;;;;;;;20.27;10.55;;;12.70;99.90;;;;;;5057285;28;20489;-77
2022/10/04 06:53:24;;;;;;;20.20;10.43;;;12.80;99.90;;;;;;5056750;28;20036;-77
2022/10/04 06:56:04;;;;;;;14.63;10.63;;;12.80;99.90;;;;;;5085063;28;20075;-77
2022/10/04 06:59:02;;;;;;;16.40;10.65;;;12.80;99.90;;;;;;5074499;28;20401;-77
2022/10/04 07:01:30;;;;;;;17.30;10.00;;;13.20;99.90;;;;;;5074231;28;20421;-77
2022/10/04 07:04:21;;;;;;;19.45;9.23;;;13.50;99.90;;;;;;5074566;28;20120;-77
2022/10/04 07:07:23;;;;;;;19.58;10.35;;;13.30;99.90;;;;;;5073046;28;20134;-77
2022/10/04 07:10:00;;;;;;;19.08;10.40;;;13.40;99.90;;;;;;5078265;28;20047;-77
2022/10/04 07:12:27;;;;;;;16.00;10.25;;;13.80;99.90;;;;;;5079646;28;20400;-77
2022/10/04 07:14:58;;;;;;;18.50;10.20;;;13.60;99.90;;;;;;5074333;28;20071;-74
2022/10/04 07:17:31;;;;;;;14.68;9.55;;;13.40;99.90;;;;;;5039834;28;20138;-77
2022/10/04 07:19:58;;;;;;;22.95;10.43;;;13.40;99.90;;;;;;5056050;28;20081;-77
2022/10/04 07:22:41;;;;;;;19.40;10.50;;;13.60;99.90;;;;;;5073649;28;20037;-77
2022/10/04 07:25:33;;;;;;;16.75;10.05;;;13.40;99.90;;;;;;5073900;28;20052;-77
2022/10/04 07:31:11;;;;;;;18.17;10.50;;;13.10;99.90;;;;;;5072524;28;20048;-77
2022/10/04 07:33:43;;;;;;;18.05;11.10;;;13.20;99.90;;;;;;5091918;28;20060;-77
2022/10/04 07:36:12;;;;;;;20.67;11.05;;;13.20;99.90;;;;;;5109527;28;20108;-77
2022/10/04 07:39:03;;;;;;;16.05;10.38;;;13.90;99.90;;;;;;5096037;28;20092;-77
2022/10/04 07:41:36;;;;;;;20.20;9.95;;;13.70;99.90;;;;;;5109297;28;20040;-77
2022/10/04 07:44:38;;;;;;;18.85;9.57;;;14.00;99.90;;;;;;5093820;28;20056;-77
2022/10/04 07:47:23;;;;;;;15.23;9.80;;;14.30;99.90;;;;;;5076544;28;20048;-77
2022/10/04 07:49:49;;;;;;;17.67;9.57;;;14.50;99.90;;;;;;5108643;28;20467;-77
2022/10/04 07:52:37;;;;;;;19.77;9.63;;;15.30;99.90;;;;;;5082865;28;20042;-77
2022/10/04 07:55:36;;;;;;;15.13;9.30;;;14.50;99.90;;;;;;5113564;28;20039;-77
2022/10/04 07:58:08;;;;;;;19.80;10.13;;;14.40;99.90;;;;;;5094009;28;20131;-77
2022/10/04 08:00:48;;;;;;;19.15;9.07;;;14.80;99.90;;;;;;5075039;28;20051;-76
2022/10/04 08:03:19;;;;;;;18.50;8.93;;;14.30;99.90;;;;;;5094268;28;20048;-76
2022/10/04 08:06:09;;;;;;;16.92;9.68;;;14.30;99.90;;;;;;5094254;28;20047;-76
2022/10/04 08:09:15;;;;;;;16.20;10.10;;;14.20;99.90;;;;;;5098944;28;20043;-77
2022/10/04 08:11:52;;;;;;;16.08;9.77;;;14.10;99.90;;;;;;5113637;28;20044;-77
2022/10/04 08:14:44;;;;;;;14.70;9.52;;;14.00;99.90;;;;;;5113692;28;20043;-77
2022/10/04 08:17:38;;;;;;;17.05;10.23;;;13.90;99.90;;;;;;5113536;28;20122;-77
2022/10/04 08:20:27;;;;;;;16.85;10.38;;;14.00;99.90;;;;;;5090478;28;20043;-76
2022/10/04 08:22:55;;;;;;;17.23;10.18;;;14.60;99.90;;;;;;5090204;28;20048;-78
2022/10/04 08:26:01;;;;;;;17.33;10.05;;;15.10;99.90;;;;;;5089237;28;20504;-78
2022/10/04 08:32:10;;;;;;;14.32;9.27;;;14.80;99.90;;;;;;5094876;28;20048;-79
2022/10/04 08:35:01;;;;;;;21.85;9.77;;;15.10;99.90;;;;;;5095096;28;20055;-79
2022/10/04 08:37:52;;;;;;;16.38;9.50;;;15.50;99.90;;;;;;5094869;28;20043;-78
2022/10/04 08:40:48;;;;;;;18.00;8.98;;;15.70;99.90;;;;;;5090220;28;20039;-79
2022/10/04 08:43:33;;;;;;;16.25;9.02;;;16.00;99.90;;;;;;5112018;28;20492;-79
2022/10/04 08:46:13;;;;;;;15.73;9.13;;;16.80;99.90;;;;;;5091139;28;20055;-78
2022/10/04 08:49:17;;;;;;;14.10;8.50;;;16.50;99.90;;;;;;5075080;28;20394;-79
2022/10/04 08:52:07;;;;;;;15.70;8.85;;;16.60;99.90;;;;;;5093898;28;20108;-79
2022/10/04 08:54:59;;;;;;;18.73;8.73;;;16.90;99.90;;;;;;5083312;28;20105;-79
2022/10/04 08:57:49;;;;;;;15.98;8.13;;;17.00;99.90;;;;;;5092262;28;20075;-79
2022/10/04 09:00:40;;;;;;;13.95;7.97;;;17.30;99.90;;;;;;5083291;28;20040;-79
2022/10/04 09:03:14;;;;;;;14.00;6.65;;;17.50;99.90;;;;;;5069431;28;20078;-79
2022/10/04 09:05:56;;;;;;;12.02;7.57;;;17.70;99.90;;;;;;5094628;28;20044;-79
2022/10/04 09:08:37;;;;;;;15.98;7.60;;;17.80;99.90;;;;;;5076140;28;20083;-79
2022/10/04 09:11:11;;;;;;;16.08;7.32;;;17.90;99.90;;;;;;5092151;28;20062;-79
2022/10/04 09:13:40;;;;;;;13.93;7.18;;;18.00;99.90;;;;;;5074299;28;20043;-80
2022/10/04 09:16:16;;;;;;;14.02;7.10;;;18.10;99.90;;;;;;5073923;28;20396;-79
2022/10/04 09:19:26;;;;;;;12.57;6.65;;;18.30;99.90;;;;;;5075549;28;20044;-79
2022/10/04 09:22:15;;;;;;;11.98;5.80;;;18.50;99.90;;;;;;5094229;28;20369;-80
2022/10/04 09:24:53;;;;;;;11.88;6.18;;;18.70;99.90;;;;;;5112443;28;20039;-79
2022/10/04 09:27:54;;;;;;;11.25;6.20;;;19.00;99.90;;;;;;5080859;28;20044;-80
2022/10/04 09:30:23;;;;;;;11.40;5.80;;;19.10;99.90;;;;;;5048774;28;20063;-80
2022/10/04 09:33:09;;;;;;;11.10;5.35;;;19.20;99.90;;;;;;5091828;28;20230;-80
2022/10/04 09:36:07;;;;;;;;;;;19.20;99.90;;;;;;5110404;28;20082;-80
2022/10/04 09:38:57;;;;;;;9.95;5.97;;;19.70;99.90;;;;;;5060352;28;20418;-80
2022/10/04 09:41:47;;;;;;;9.45;5.22;;;20.10;99.90;;;;;;5116132;28;20094;-80
2022/10/04 09:44:50;;;;;;;9.20;5.10;;;20.60;99.90;;;;;;5098333;28;20057;-80
2022/10/04 09:47:36;;;;;;;8.10;4.63;;;21.00;99.90;;;;;;5116295;28;20066;-80
2022/10/04 09:50:25;;;;;;;10.85;4.80;;;21.10;99.90;;;;;;5098327;28;20036;-80
2022/10/04 09:53:19;;;;;;;7.50;4.25;;;21.20;99.90;;;;;;5114131;28;20059;-80
2022/10/04 09:55:47;;;;;;;8.55;4.57;;;21.30;99.90;;;;;;5097948;28;20047;-80
2022/10/04 09:58:28;;;;;;;9.48;4.50;;;21.40;99.90;;;;;;5096710;28;20047;-81
2022/10/04 10:01:02;;;;;;;9.02;4.13;;;21.60;99.90;;;;;;5096345;28;20036;-80
2022/10/04 10:03:54;;;;;;;7.78;4.07;;;21.70;99.90;;;;;;5115883;28;20044;-80
2022/10/04 10:07:08;;;;;;;8.75;4.20;;;21.90;99.90;;;;;;5115544;28;20048;-80
2022/10/04 10:15:54;;;;;;;11.55;4.55;;;22.10;99.90;;;;;;5115996;28;20055;-81
2022/10/04 10:18:26;;;;;;;10.60;4.75;;;22.50;99.80;;;;;;5116097;28;20055;-81
2022/10/04 10:21:22;;;;;;;9.60;4.80;;;22.70;99.80;;;;;;5115579;28;20520;-80
2022/10/04 10:24:06;;;;;;;;;;;22.90;99.80;;;;;;5116515;28;20453;-80
2022/10/04 10:26:54;;;;;;;8.48;4.40;;;23.00;99.90;;;;;;5115649;28;19999;-80
2022/10/04 10:29:50;;;;;;;9.07;4.68;;;23.40;99.40;;;;;;5115819;28;20032;-80
2022/10/04 10:32:22;;;;;;;;;;;23.70;99.10;;;;;;5087601;28;20052;-80
2022/10/04 10:35:09;;;;;;;8.07;4.20;;;24.20;97.70;;;;;;5097120;28;20011;-80
2022/10/04 10:37:58;;;;;;;8.32;4.13;;;24.30;97.10;;;;;;5115331;28;20097;-80
2022/10/04 10:40:35;;;;;;;8.65;4.00;;;24.40;96.70;;;;;;5115330;28;20551;-80
2022/10/04 10:43:38;;;;;;;7.40;3.80;;;24.20;96.40;;;;;;5115068;28;20050;-80
2022/10/04 10:46:26;;;;;;;8.35;3.67;;;24.40;96.60;;;;;;5113705;28;20043;-80
2022/10/04 10:49:16;;;;;;;7.32;3.42;;;24.60;95.70;;;;;;5115899;28;20510;-81
2022/10/04 10:52:10;;;;;;;9.43;3.10;;;24.90;95.70;;;;;;5097013;28;20055;-80
2022/10/04 10:54:54;;;;;;;6.60;2.90;;;25.20;94.90;;;;;;5066102;28;20047;-80
2022/10/04 10:57:57;;;;;;;7.18;3.25;;;25.40;94.50;;;;;;5113699;28;20051;-80
2022/10/04 11:00:30;;;;;;;6.97;3.28;;;25.50;94.70;;;;;;5076531;28;20127;-81
2022/10/04 11:03:16;;;;;;;8.30;3.53;;;25.60;94.20;;;;;;5094446;28;20128;-81
2022/10/04 11:06:07;;;;;;;10.35;3.55;;;25.70;94.10;;;;;;5094034;28;20056;-81
2022/10/04 11:09:00;;;;;;;8.98;3.20;;;25.50;94.00;;;;;;5094370;28;20096;-80
2022/10/04 11:12:04;;;;;;;5.05;3.00;;;25.10;94.70;;;;;;5094022;28;20147;-80
2022/10/04 11:14:35;;;;;;;7.60;3.47;;;25.00;95.00;;;;;;5060122;28;20087;-81
2022/10/04 11:17:39;;;;;;;9.13;3.08;;;25.00;94.50;;;;;;5094320;28;20040;-80
2022/10/04 11:20:28;;;;;;;8.93;3.38;;;26.20;93.00;;;;;;5094182;28;20437;-80
2022/10/04 11:23:00;;;;;;;6.55;3.03;;;25.80;93.10;;;;;;5059019;28;20051;-80
2022/10/04 11:25:44;;;;;;;10.93;3.35;;;25.80;93.40;;;;;;5075794;28;20048;-80
2022/10/04 11:28:28;;;;;;;10.77;3.33;;;26.20;92.60;;;;;;5093991;28;20123;-80
2022/10/04 11:30:57;;;;;;;7.82;3.47;;;26.80;91.60;;;;;;5075481;28;20040;-80
2022/10/04 11:33:41;;;;;;;6.50;3.17;;;27.00;91.40;;;;;;5075789;28;20056;-80
2022/10/04 11:36:32;;;;;;;6.88;3.00;;;27.00;91.40;;;;;;5075335;28;20067;-80
2022/10/04 11:39:24;;;;;;;7.82;2.75;;;28.00;90.10;;;;;;5094189;28;20040;-80
2022/10/04 11:42:17;;;;;;;5.78;2.70;;;28.20;90.20;;;;;;5093549;28;20047;-79
2022/10/04 11:44:43;;;;;;;6.30;2.80;;;29.30;90.10;;;;;;5076171;28;20454;-79
2022/10/04 11:47:17;;;;;;;6.45;2.80;;;30.00;86.40;;;;;;5093646;28;20047;-79
2022/10/04 11:50:02;;;;;;;;;;;30.50;84.10;;;;;;5093431;28;20044;-79
2022/10/04 11:53:01;;;;;;;7.03;3.30;;;30.70;82.80;;;;;;5075555;28;20311;-79
2022/10/04 11:55:36;;;;;;;5.43;2.70;;;30.80;82.20;;;;;;5075606;28;20056;-80
2022/10/04 11:58:39;;;;;;;8.18;3.17;;;30.70;80.80;;;;;;5092233;28;20424;-80
2022/10/04 12:01:10;;;;;;;8.48;3.00;;;31.40;79.60;;;;;;5051565;28;20099;-80
2022/10/04 12:03:43;;;;;;;6.28;3.38;;;31.90;79.30;;;;;;5075216;28;20428;-80
2022/10/04 12:06:47;;;;;;;8.55;3.10;;;32.50;77.00;;;;;;5075067;28;20051;-80
2022/10/04 12:09:38;;;;;;;5.15;3.00;;;32.90;76.00;;;;;;5074688;28;20492;-80
2022/10/04 12:12:38;;;;;;;7.72;2.70;;;33.30;75.00;;;;;;5020701;28;20134;-80
2022/10/04 12:15:30;;;;;;;6.95;2.80;;;33.70;73.90;;;;;;5093099;28;20040;-80
2022/10/04 12:18:48;;;;;;;7.45;2.78;;;33.80;72.80;;;;;;5075281;28;20048;-80
2022/10/04 12:21:34;;;;;;;7.32;3.25;;;33.00;73.50;;;;;;5000847;28;20515;-80
2022/10/04 12:24:26;;;;;;;7.38;3.50;;;33.20;72.90;;;;;;5093397;28;20499;-81
2022/10/04 12:27:33;;;;;;;7.15;2.85;;;33.70;71.20;;;;;;5092912;28;20044;-80
2022/10/04 12:30:19;;;;;;;6.40;3.35;;;33.60;70.60;;;;;;5041382;28;20060;-81
2022/10/04 12:33:08;;;;;;;5.97;3.00;;;33.60;70.30;;;;;;5073974;28;20407;-80
2022/10/04 12:35:44;;;;;;;8.38;3.20;;;33.10;70.10;;;;;;5072587;28;20135;-81
2022/10/04 12:38:29;;;;;;;6.97;2.83;;;32.60;70.90;;;;;;5093286;28;20119;-81
2022/10/04 12:41:18;;;;;;;7.63;3.25;;;32.90;70.10;;;;;;5074449;28;20062;-80
2022/10/04 12:43:55;;;;;;;6.90;3.30;;;;;;;;;;5074515;28;20051;-80
2022/10/04 12:46:30;;;;;;;7.35;3.40;;;;;;;;;;5074470;28;20156;-80
2022/10/04 12:49:00;;;;;;;7.47;3.17;;;;;;;;;;5075204;28;20079;-79
2022/10/04 12:51:32;;;;;;;11.18;3.50;;;;;;;;;;5072626;28;20123;-80
2022/10/04 12:54:12;;;;;;;7.43;3.50;;;;;;;;;;5073130;28;20507;-79
2022/10/04 12:56:45;;;;;;;7.97;3.35;;;;;;;;;;5074367;28;20085;-80
2022/10/04 12:59:42;;;;;;;7.18;3.65;;;32.80;70.10;;;;;;5092018;28;20040;-79
2022/10/04 13:02:30;;;;;;;7.95;3.33;;;25.80;79.10;;;;;;5050138;28;20055;-80
2022/10/04 13:05:16;;;;;;;8.93;3.80;;;24.70;81.40;;;;;;5092711;28;20071;-80
2022/10/04 13:07:42;;;;;;;10.30;4.10;;;24.20;83.70;;;;;;5091148;28;20048;-81
2022/10/04 13:10:26;;;;;;;9.90;3.97;;;23.70;85.20;;;;;;5073631;28;20055;-81
2022/10/04 13:13:09;;;;;;;7.03;3.47;;;23.50;86.20;;;;;;5074115;28;20051;-80
2022/10/04 13:15:47;;;;;;;6.97;3.60;;;23.40;85.90;;;;;;5092243;28;20099;-80
2022/10/04 13:18:44;;;;;;;8.13;3.90;;;23.20;86.40;;;;;;5075468;28;20381;-80
2022/10/04 13:21:21;;;;;;;9.85;3.88;;;23.10;87.70;;;;;;5073938;28;20046;-81
2022/10/04 13:24:12;;;;;;;9.50;4.68;;;23.10;88.80;;;;;;5092445;28;20047;-81
2022/10/04 13:26:48;;;;;;;10.55;5.03;;;22.80;90.10;;;;;;5074138;28;20055;-81
2022/10/04 13:29:21;;;;;;;10.48;4.88;;;22.60;90.70;;;;;;5073931;28;20110;-80
2022/10/04 13:32:02;;;;;;;10.57;5.32;;;22.40;91.30;;;;;;5056079;28;20048;-80
2022/10/04 13:34:44;;;;;;;10.30;4.88;;;22.20;91.80;;;;;;5091121;28;20055;-81
2022/10/04 13:37:39;;;;;;;9.60;4.53;;;22.10;92.20;;;;;;5073552;28;20139;-80
2022/10/04 13:40:10;;;;;;;8.63;4.50;;;22.10;93.10;;;;;;5074192;28;20039;-81
2022/10/04 13:43:05;;;;;;;12.40;4.32;;;22.20;92.60;;;;;;5091750;28;20040;-81
2022/10/04 13:45:52;;;;;;;13.37;4.87;;;22.20;92.80;;;;;;5057041;28;20058;-81
2022/10/04 13:48:28;;;;;;;12.77;4.85;;;22.00;92.70;;;;;;5091703;28;20282;-81
2022/10/04 13:51:18;;;;;;;10.73;4.82;;;21.80;93.40;;;;;;5080900;28;20036;-81
2022/10/04 13:57:04;;;;;;;11.52;5.07;;;21.60;94.40;;;;;;5094146;28;20051;-80
2022/10/04 13:59:46;;;;;;;9.18;4.78;;;21.50;94.70;;;;;;5094065;28;20066;-82
2022/10/04 14:02:27;;;;;;;11.10;4.70;;;21.40;94.90;;;;;;5094009;28;20391;-80
2022/10/04 14:05:26;;;;;;;9.27;4.60;;;21.40;95.30;;;;;;5094334;28;20416;-80